sensor_id;sensor_type;location;lat;lon;timestamp;P1;durP1;ratioP1;P2;durP2;ratioP2
23358;SDS011;11851;50.796;4.372;2022-09-09T00:01:50;5.57;;;1.75;;
23358;SDS011;11851;50.796;4.372;2022-09-09T00:04:31;15.18;;;1.75;;
23358;SDS011;11851;50.796;4.372;2022-09-09T00:07:10;5.95;;;1.55;;
23358;SDS011;11851;50.796;4.372;2022-09-09T00:09:45;5.38;;;1.50;;
23358;SDS011;11851;50.796;4.372;2022-09-09T00:15:19;3.88;;;1.27;;
23358;SDS011;11851;50.796;4.372;2022-09-09T00:23:19;9.82;;;1.55;;
23358;SDS011;11851;50.796;4.372;2022-09-09T00:31:33;6.35;;;1.65;;
23358;SDS011;11851;50.796;4.372;2022-09-09T00:34:09;8.18;;;1.52;;
23358;SDS011;11851;50.796;4.372;2022-09-09T00:36:39;6.93;;;1.50;;
23358;SDS011;11851;50.796;4.372;2022-09-09T00:39:08;12.68;;;1.50;;
23358;SDS011;11851;50.796;4.372;2022-09-09T00:44:36;5.40;;;1.23;;
23358;SDS011;11851;50.796;4.372;2022-09-09T00:47:16;5.78;;;1.20;;
23358;SDS011;11851;50.796;4.372;2022-09-09T00:55:26;7.50;;;1.40;;
23358;SDS011;11851;50.796;4.372;2022-09-09T00:58:00;6.30;;;1.65;;
23358;SDS011;11851;50.796;4.372;2022-09-09T01:06:00;10.55;;;1.67;;
23358;SDS011;11851;50.796;4.372;2022-09-09T01:11:21;6.78;;;1.48;;
23358;SDS011;11851;50.796;4.372;2022-09-09T01:13:52;11.27;;;1.98;;
23358;SDS011;11851;50.796;4.372;2022-09-09T01:16:24;7.40;;;1.27;;
23358;SDS011;11851;50.796;4.372;2022-09-09T01:18:52;8.45;;;1.50;;
23358;SDS011;11851;50.796;4.372;2022-09-09T01:26:48;11.65;;;1.80;;
23358;SDS011;11851;50.796;4.372;2022-09-09T01:29:17;10.25;;;1.80;;
23358;SDS011;11851;50.796;4.372;2022-09-09T01:31:55;10.60;;;2.20;;
23358;SDS011;11851;50.796;4.372;2022-09-09T01:34:22;7.03;;;1.70;;
23358;SDS011;11851;50.796;4.372;2022-09-09T01:37:06;7.80;;;1.70;;
23358;SDS011;11851;50.796;4.372;2022-09-09T01:39:34;6.22;;;1.55;;
23358;SDS011;11851;50.796;4.372;2022-09-09T01:42:01;12.30;;;1.88;;
23358;SDS011;11851;50.796;4.372;2022-09-09T01:44:29;8.50;;;1.90;;
23358;SDS011;11851;50.796;4.372;2022-09-09T01:46:55;12.05;;;2.55;;
23358;SDS011;11851;50.796;4.372;2022-09-09T01:49:21;7.82;;;1.83;;
23358;SDS011;11851;50.796;4.372;2022-09-09T01:51:49;8.27;;;1.92;;
23358;SDS011;11851;50.796;4.372;2022-09-09T01:54:17;16.13;;;1.83;;
23358;SDS011;11851;50.796;4.372;2022-09-09T01:59:59;12.70;;;2.00;;
23358;SDS011;11851;50.796;4.372;2022-09-09T02:02:34;9.98;;;2.47;;
23358;SDS011;11851;50.796;4.372;2022-09-09T02:05:37;9.43;;;1.92;;
23358;SDS011;11851;50.796;4.372;2022-09-09T02:08:08;7.40;;;1.73;;
23358;SDS011;11851;50.796;4.372;2022-09-09T02:13:16;13.52;;;2.15;;
23358;SDS011;11851;50.796;4.372;2022-09-09T02:18:32;8.63;;;1.77;;
23358;SDS011;11851;50.796;4.372;2022-09-09T02:21:10;12.65;;;2.70;;
23358;SDS011;11851;50.796;4.372;2022-09-09T02:23:37;15.05;;;2.20;;
23358;SDS011;11851;50.796;4.372;2022-09-09T02:26:06;7.68;;;1.85;;
23358;SDS011;11851;50.796;4.372;2022-09-09T02:28:35;7.93;;;1.95;;
23358;SDS011;11851;50.796;4.372;2022-09-09T02:31:03;11.43;;;1.90;;
23358;SDS011;11851;50.796;4.372;2022-09-09T02:33:32;14.50;;;2.28;;
23358;SDS011;11851;50.796;4.372;2022-09-09T02:36:02;8.87;;;2.10;;
23358;SDS011;11851;50.796;4.372;2022-09-09T02:38:32;8.93;;;1.98;;
23358;SDS011;11851;50.796;4.372;2022-09-09T02:41:01;12.75;;;1.92;;
23358;SDS011;11851;50.796;4.372;2022-09-09T02:43:33;15.40;;;2.03;;
23358;SDS011;11851;50.796;4.372;2022-09-09T02:51:42;17.63;;;2.40;;
23358;SDS011;11851;50.796;4.372;2022-09-09T02:54:21;12.27;;;1.85;;
23358;SDS011;11851;50.796;4.372;2022-09-09T02:56:52;10.32;;;2.45;;
23358;SDS011;11851;50.796;4.372;2022-09-09T02:59:21;12.98;;;2.03;;
23358;SDS011;11851;50.796;4.372;2022-09-09T03:01:49;11.23;;;1.88;;
23358;SDS011;11851;50.796;4.372;2022-09-09T03:04:15;12.30;;;2.10;;
23358;SDS011;11851;50.796;4.372;2022-09-09T03:06:41;16.25;;;2.47;;
23358;SDS011;11851;50.796;4.372;2022-09-09T03:09:07;11.63;;;2.80;;
23358;SDS011;11851;50.796;4.372;2022-09-09T03:11:35;9.80;;;2.05;;
23358;SDS011;11851;50.796;4.372;2022-09-09T03:14:01;11.82;;;2.05;;
23358;SDS011;11851;50.796;4.372;2022-09-09T03:16:27;13.57;;;2.05;;
23358;SDS011;11851;50.796;4.372;2022-09-09T03:18:52;13.20;;;2.65;;
23358;SDS011;11851;50.796;4.372;2022-09-09T03:21:18;13.07;;;2.72;;
23358;SDS011;11851;50.796;4.372;2022-09-09T03:23:44;18.23;;;2.72;;
23358;SDS011;11851;50.796;4.372;2022-09-09T03:26:10;8.10;;;2.00;;
23358;SDS011;11851;50.796;4.372;2022-09-09T03:28:36;7.88;;;2.00;;
23358;SDS011;11851;50.796;4.372;2022-09-09T03:31:02;14.77;;;2.75;;
23358;SDS011;11851;50.796;4.372;2022-09-09T03:33:29;11.52;;;2.33;;
23358;SDS011;11851;50.796;4.372;2022-09-09T03:35:56;16.90;;;2.50;;
23358;SDS011;11851;50.796;4.372;2022-09-09T03:38:25;23.38;;;2.53;;
23358;SDS011;11851;50.796;4.372;2022-09-09T03:40:51;15.02;;;2.90;;
23358;SDS011;11851;50.796;4.372;2022-09-09T03:43:22;14.00;;;2.05;;
23358;SDS011;11851;50.796;4.372;2022-09-09T03:45:49;14.70;;;2.38;;
23358;SDS011;11851;50.796;4.372;2022-09-09T03:48:18;18.58;;;2.40;;
23358;SDS011;11851;50.796;4.372;2022-09-09T03:50:48;12.55;;;2.50;;
23358;SDS011;11851;50.796;4.372;2022-09-09T03:53:15;15.13;;;2.20;;
23358;SDS011;11851;50.796;4.372;2022-09-09T03:55:43;12.85;;;1.98;;
23358;SDS011;11851;50.796;4.372;2022-09-09T03:58:13;15.95;;;2.83;;
23358;SDS011;11851;50.796;4.372;2022-09-09T04:00:40;22.65;;;3.17;;
23358;SDS011;11851;50.796;4.372;2022-09-09T04:03:10;14.82;;;2.70;;
23358;SDS011;11851;50.796;4.372;2022-09-09T04:05:36;18.80;;;2.30;;
23358;SDS011;11851;50.796;4.372;2022-09-09T04:08:07;18.35;;;2.25;;
23358;SDS011;11851;50.796;4.372;2022-09-09T04:10:33;13.63;;;2.25;;
23358;SDS011;11851;50.796;4.372;2022-09-09T04:13:01;11.25;;;2.25;;
23358;SDS011;11851;50.796;4.372;2022-09-09T04:15:27;13.20;;;2.47;;
23358;SDS011;11851;50.796;4.372;2022-09-09T04:17:53;16.27;;;2.25;;
23358;SDS011;11851;50.796;4.372;2022-09-09T04:20:20;15.88;;;2.35;;
23358;SDS011;11851;50.796;4.372;2022-09-09T04:22:47;15.27;;;2.40;;
23358;SDS011;11851;50.796;4.372;2022-09-09T04:25:12;11.13;;;2.58;;
23358;SDS011;11851;50.796;4.372;2022-09-09T04:27:38;17.73;;;2.80;;
23358;SDS011;11851;50.796;4.372;2022-09-09T04:30:05;12.50;;;2.15;;
23358;SDS011;11851;50.796;4.372;2022-09-09T04:32:34;12.02;;;2.30;;
23358;SDS011;11851;50.796;4.372;2022-09-09T04:35:01;14.95;;;3.05;;
23358;SDS011;11851;50.796;4.372;2022-09-09T04:37:28;12.38;;;2.47;;
23358;SDS011;11851;50.796;4.372;2022-09-09T04:39:53;16.55;;;2.58;;
23358;SDS011;11851;50.796;4.372;2022-09-09T04:42:19;16.27;;;3.13;;
23358;SDS011;11851;50.796;4.372;2022-09-09T04:44:45;17.17;;;2.80;;
23358;SDS011;11851;50.796;4.372;2022-09-09T04:47:10;12.15;;;2.28;;
23358;SDS011;11851;50.796;4.372;2022-09-09T04:49:36;16.75;;;2.70;;
23358;SDS011;11851;50.796;4.372;2022-09-09T04:52:03;15.63;;;3.10;;
23358;SDS011;11851;50.796;4.372;2022-09-09T04:54:29;12.13;;;2.47;;
23358;SDS011;11851;50.796;4.372;2022-09-09T04:56:54;13.65;;;2.95;;
23358;SDS011;11851;50.796;4.372;2022-09-09T04:59:20;13.65;;;2.92;;
23358;SDS011;11851;50.796;4.372;2022-09-09T05:01:47;14.40;;;2.70;;
23358;SDS011;11851;50.796;4.372;2022-09-09T05:04:14;12.63;;;2.88;;
23358;SDS011;11851;50.796;4.372;2022-09-09T05:06:42;14.82;;;2.53;;
23358;SDS011;11851;50.796;4.372;2022-09-09T05:09:08;17.33;;;2.60;;
23358;SDS011;11851;50.796;4.372;2022-09-09T05:11:34;17.05;;;3.00;;
23358;SDS011;11851;50.796;4.372;2022-09-09T05:14:03;18.58;;;3.03;;
23358;SDS011;11851;50.796;4.372;2022-09-09T05:16:29;17.08;;;2.90;;
23358;SDS011;11851;50.796;4.372;2022-09-09T05:18:55;13.52;;;2.92;;
23358;SDS011;11851;50.796;4.372;2022-09-09T05:21:22;15.40;;;2.60;;
23358;SDS011;11851;50.796;4.372;2022-09-09T05:23:50;11.75;;;2.30;;
23358;SDS011;11851;50.796;4.372;2022-09-09T05:26:17;16.50;;;3.38;;
23358;SDS011;11851;50.796;4.372;2022-09-09T05:28:46;14.35;;;3.03;;
23358;SDS011;11851;50.796;4.372;2022-09-09T05:31:13;16.70;;;2.70;;
23358;SDS011;11851;50.796;4.372;2022-09-09T05:33:40;11.75;;;2.28;;
23358;SDS011;11851;50.796;4.372;2022-09-09T05:36:08;15.18;;;3.10;;
23358;SDS011;11851;50.796;4.372;2022-09-09T05:38:42;13.52;;;2.58;;
23358;SDS011;11851;50.796;4.372;2022-09-09T05:41:08;15.40;;;2.90;;
23358;SDS011;11851;50.796;4.372;2022-09-09T05:43:40;12.82;;;2.55;;
23358;SDS011;11851;50.796;4.372;2022-09-09T05:46:19;21.13;;;2.75;;
23358;SDS011;11851;50.796;4.372;2022-09-09T05:48:46;13.52;;;2.30;;
23358;SDS011;11851;50.796;4.372;2022-09-09T05:51:14;12.80;;;2.28;;
23358;SDS011;11851;50.796;4.372;2022-09-09T05:53:42;11.13;;;2.00;;
23358;SDS011;11851;50.796;4.372;2022-09-09T05:56:09;14.68;;;2.63;;
23358;SDS011;11851;50.796;4.372;2022-09-09T05:58:36;14.10;;;3.15;;
23358;SDS011;11851;50.796;4.372;2022-09-09T06:01:11;15.82;;;2.72;;
23358;SDS011;11851;50.796;4.372;2022-09-09T06:03:41;14.32;;;2.65;;
23358;SDS011;11851;50.796;4.372;2022-09-09T06:06:09;16.02;;;2.35;;
23358;SDS011;11851;50.796;4.372;2022-09-09T06:08:37;16.10;;;2.60;;
23358;SDS011;11851;50.796;4.372;2022-09-09T06:11:08;17.35;;;2.45;;
23358;SDS011;11851;50.796;4.372;2022-09-09T06:13:36;21.50;;;2.40;;
23358;SDS011;11851;50.796;4.372;2022-09-09T06:16:14;12.18;;;2.38;;
23358;SDS011;11851;50.796;4.372;2022-09-09T06:18:41;18.30;;;2.72;;
23358;SDS011;11851;50.796;4.372;2022-09-09T06:21:17;11.65;;;2.20;;
23358;SDS011;11851;50.796;4.372;2022-09-09T06:23:45;14.40;;;2.20;;
23358;SDS011;11851;50.796;4.372;2022-09-09T06:28:38;12.77;;;2.50;;
23358;SDS011;11851;50.796;4.372;2022-09-09T06:31:06;15.10;;;2.58;;
23358;SDS011;11851;50.796;4.372;2022-09-09T06:33:35;12.10;;;2.58;;
23358;SDS011;11851;50.796;4.372;2022-09-09T06:36:04;21.27;;;2.28;;
23358;SDS011;11851;50.796;4.372;2022-09-09T06:38:30;13.65;;;2.58;;
23358;SDS011;11851;50.796;4.372;2022-09-09T06:40:57;15.70;;;2.25;;
23358;SDS011;11851;50.796;4.372;2022-09-09T06:43:24;12.75;;;2.20;;
23358;SDS011;11851;50.796;4.372;2022-09-09T06:45:57;17.33;;;2.47;;
23358;SDS011;11851;50.796;4.372;2022-09-09T06:48:24;15.70;;;2.50;;
23358;SDS011;11851;50.796;4.372;2022-09-09T06:51:03;15.67;;;2.17;;
23358;SDS011;11851;50.796;4.372;2022-09-09T06:53:28;16.48;;;2.60;;
23358;SDS011;11851;50.796;4.372;2022-09-09T06:55:54;10.05;;;2.03;;
23358;SDS011;11851;50.796;4.372;2022-09-09T06:58:20;14.52;;;2.70;;
23358;SDS011;11851;50.796;4.372;2022-09-09T07:00:48;15.65;;;2.70;;
23358;SDS011;11851;50.796;4.372;2022-09-09T07:03:14;14.63;;;2.75;;
23358;SDS011;11851;50.796;4.372;2022-09-09T07:05:40;13.15;;;2.10;;
23358;SDS011;11851;50.796;4.372;2022-09-09T07:08:05;13.75;;;2.10;;
23358;SDS011;11851;50.796;4.372;2022-09-09T07:10:31;14.38;;;2.13;;
23358;SDS011;11851;50.796;4.372;2022-09-09T07:12:59;16.33;;;2.00;;
23358;SDS011;11851;50.796;4.372;2022-09-09T07:15:25;12.35;;;2.38;;
23358;SDS011;11851;50.796;4.372;2022-09-09T07:17:51;16.60;;;2.60;;
23358;SDS011;11851;50.796;4.372;2022-09-09T07:20:18;11.68;;;2.00;;
23358;SDS011;11851;50.796;4.372;2022-09-09T07:22:45;12.77;;;1.92;;
23358;SDS011;11851;50.796;4.372;2022-09-09T07:25:11;9.00;;;1.75;;
23358;SDS011;11851;50.796;4.372;2022-09-09T07:27:36;18.25;;;3.08;;
23358;SDS011;11851;50.796;4.372;2022-09-09T07:30:02;15.93;;;2.72;;
23358;SDS011;11851;50.796;4.372;2022-09-09T07:32:29;14.65;;;2.00;;
23358;SDS011;11851;50.796;4.372;2022-09-09T07:34:55;17.33;;;2.53;;
23358;SDS011;11851;50.796;4.372;2022-09-09T07:37:23;10.93;;;2.33;;
23358;SDS011;11851;50.796;4.372;2022-09-09T07:39:49;13.50;;;2.00;;
23358;SDS011;11851;50.796;4.372;2022-09-09T07:42:16;12.20;;;2.25;;
23358;SDS011;11851;50.796;4.372;2022-09-09T07:44:42;12.77;;;2.35;;
23358;SDS011;11851;50.796;4.372;2022-09-09T07:47:07;9.77;;;2.00;;
23358;SDS011;11851;50.796;4.372;2022-09-09T07:49:33;15.00;;;2.53;;
23358;SDS011;11851;50.796;4.372;2022-09-09T07:51:59;18.27;;;2.50;;
23358;SDS011;11851;50.796;4.372;2022-09-09T07:54:25;11.70;;;2.45;;
23358;SDS011;11851;50.796;4.372;2022-09-09T07:56:51;14.70;;;2.65;;
23358;SDS011;11851;50.796;4.372;2022-09-09T07:59:18;17.58;;;2.85;;
23358;SDS011;11851;50.796;4.372;2022-09-09T08:01:48;15.85;;;2.75;;
23358;SDS011;11851;50.796;4.372;2022-09-09T08:04:20;8.52;;;2.03;;
23358;SDS011;11851;50.796;4.372;2022-09-09T08:06:48;13.55;;;2.55;;
23358;SDS011;11851;50.796;4.372;2022-09-09T08:09:18;9.27;;;2.10;;
23358;SDS011;11851;50.796;4.372;2022-09-09T08:11:45;17.88;;;2.67;;
23358;SDS011;11851;50.796;4.372;2022-09-09T08:14:12;13.60;;;2.42;;
23358;SDS011;11851;50.796;4.372;2022-09-09T08:16:39;15.38;;;2.83;;
23358;SDS011;11851;50.796;4.372;2022-09-09T08:19:07;15.50;;;3.03;;
23358;SDS011;11851;50.796;4.372;2022-09-09T08:21:33;15.77;;;2.35;;
23358;SDS011;11851;50.796;4.372;2022-09-09T08:24:02;12.98;;;2.25;;
23358;SDS011;11851;50.796;4.372;2022-09-09T08:26:37;11.80;;;2.10;;
23358;SDS011;11851;50.796;4.372;2022-09-09T08:29:05;13.23;;;2.55;;
23358;SDS011;11851;50.796;4.372;2022-09-09T08:31:36;23.05;;;2.85;;
23358;SDS011;11851;50.796;4.372;2022-09-09T08:34:03;13.30;;;2.67;;
23358;SDS011;11851;50.796;4.372;2022-09-09T08:36:31;16.50;;;2.85;;
23358;SDS011;11851;50.796;4.372;2022-09-09T08:38:59;12.18;;;2.17;;
23358;SDS011;11851;50.796;4.372;2022-09-09T08:47:02;13.98;;;2.25;;
23358;SDS011;11851;50.796;4.372;2022-09-09T08:49:42;8.95;;;2.72;;
23358;SDS011;11851;50.796;4.372;2022-09-09T08:52:23;13.30;;;2.28;;
23358;SDS011;11851;50.796;4.372;2022-09-09T08:54:54;21.50;;;3.25;;
23358;SDS011;11851;50.796;4.372;2022-09-09T08:57:25;16.67;;;2.78;;
23358;SDS011;11851;50.796;4.372;2022-09-09T08:59:53;13.20;;;2.28;;
23358;SDS011;11851;50.796;4.372;2022-09-09T09:02:36;17.83;;;2.75;;
23358;SDS011;11851;50.796;4.372;2022-09-09T09:10:45;12.43;;;2.40;;
23358;SDS011;11851;50.796;4.372;2022-09-09T09:13:14;17.58;;;2.90;;
23358;SDS011;11851;50.796;4.372;2022-09-09T09:15:41;18.40;;;2.58;;
23358;SDS011;11851;50.796;4.372;2022-09-09T09:18:10;13.27;;;2.78;;
23358;SDS011;11851;50.796;4.372;2022-09-09T09:20:49;14.93;;;2.75;;
23358;SDS011;11851;50.796;4.372;2022-09-09T09:23:40;12.88;;;2.45;;
23358;SDS011;11851;50.796;4.372;2022-09-09T09:26:15;10.07;;;2.25;;
23358;SDS011;11851;50.796;4.372;2022-09-09T09:28:43;8.82;;;2.20;;
23358;SDS011;11851;50.796;4.372;2022-09-09T09:31:09;13.82;;;2.72;;
23358;SDS011;11851;50.796;4.372;2022-09-09T09:36:14;13.88;;;2.30;;
23358;SDS011;11851;50.796;4.372;2022-09-09T09:39:02;10.88;;;2.00;;
23358;SDS011;11851;50.796;4.372;2022-09-09T09:41:35;6.88;;;2.10;;
23358;SDS011;11851;50.796;4.372;2022-09-09T09:44:04;13.32;;;2.35;;
23358;SDS011;11851;50.796;4.372;2022-09-09T09:46:30;13.07;;;2.67;;
23358;SDS011;11851;50.796;4.372;2022-09-09T09:49:08;11.25;;;2.10;;
23358;SDS011;11851;50.796;4.372;2022-09-09T09:51:35;14.93;;;2.92;;
23358;SDS011;11851;50.796;4.372;2022-09-09T09:56:40;10.85;;;2.08;;
23358;SDS011;11851;50.796;4.372;2022-09-09T09:59:21;10.30;;;2.45;;
23358;SDS011;11851;50.796;4.372;2022-09-09T10:01:49;13.60;;;2.65;;
23358;SDS011;11851;50.796;4.372;2022-09-09T10:04:16;11.27;;;2.78;;
23358;SDS011;11851;50.796;4.372;2022-09-09T10:06:45;13.90;;;2.80;;
23358;SDS011;11851;50.796;4.372;2022-09-09T10:09:21;11.25;;;2.00;;
23358;SDS011;11851;50.796;4.372;2022-09-09T10:14:49;11.38;;;2.55;;
23358;SDS011;11851;50.796;4.372;2022-09-09T10:17:25;10.43;;;2.58;;
23358;SDS011;11851;50.796;4.372;2022-09-09T10:22:39;12.38;;;2.50;;
23358;SDS011;11851;50.796;4.372;2022-09-09T10:33:44;15.77;;;2.67;;
23358;SDS011;11851;50.796;4.372;2022-09-09T10:36:21;8.60;;;2.15;;
23358;SDS011;11851;50.796;4.372;2022-09-09T10:39:04;6.72;;;1.90;;
23358;SDS011;11851;50.796;4.372;2022-09-09T10:41:44;13.85;;;2.10;;
23358;SDS011;11851;50.796;4.372;2022-09-09T10:47:09;14.68;;;2.60;;
23358;SDS011;11851;50.796;4.372;2022-09-09T10:52:26;11.48;;;2.63;;
23358;SDS011;11851;50.796;4.372;2022-09-09T10:57:49;15.20;;;2.90;;
23358;SDS011;11851;50.796;4.372;2022-09-09T11:05:30;12.43;;;2.38;;
23358;SDS011;11851;50.796;4.372;2022-09-09T11:08:02;11.57;;;2.03;;
23358;SDS011;11851;50.796;4.372;2022-09-09T11:13:30;12.77;;;2.65;;
23358;SDS011;11851;50.796;4.372;2022-09-09T11:16:01;10.20;;;2.25;;
23358;SDS011;11851;50.796;4.372;2022-09-09T11:18:40;9.90;;;2.72;;
23358;SDS011;11851;50.796;4.372;2022-09-09T11:21:10;9.23;;;1.80;;
23358;SDS011;11851;50.796;4.372;2022-09-09T11:23:51;6.25;;;1.83;;
23358;SDS011;11851;50.796;4.372;2022-09-09T11:26:32;8.82;;;1.90;;
23358;SDS011;11851;50.796;4.372;2022-09-09T11:29:19;12.50;;;2.30;;
23358;SDS011;11851;50.796;4.372;2022-09-09T11:31:57;12.43;;;2.45;;
23358;SDS011;11851;50.796;4.372;2022-09-09T11:43:02;11.25;;;2.47;;
23358;SDS011;11851;50.796;4.372;2022-09-09T11:45:31;11.00;;;2.00;;
23358;SDS011;11851;50.796;4.372;2022-09-09T11:47:59;12.20;;;2.50;;
23358;SDS011;11851;50.796;4.372;2022-09-09T11:52:51;8.68;;;1.63;;
23358;SDS011;11851;50.796;4.372;2022-09-09T11:55:45;10.52;;;1.67;;
23358;SDS011;11851;50.796;4.372;2022-09-09T12:03:05;9.88;;;1.80;;
23358;SDS011;11851;50.796;4.372;2022-09-09T12:05:51;12.98;;;1.60;;
23358;SDS011;11851;50.796;4.372;2022-09-09T12:08:19;6.03;;;2.08;;
23358;SDS011;11851;50.796;4.372;2022-09-09T12:10:55;11.65;;;2.20;;
23358;SDS011;11851;50.796;4.372;2022-09-09T12:13:24;8.13;;;1.90;;
23358;SDS011;11851;50.796;4.372;2022-09-09T12:15:52;8.35;;;1.70;;
23358;SDS011;11851;50.796;4.372;2022-09-09T12:18:31;9.77;;;2.15;;
23358;SDS011;11851;50.796;4.372;2022-09-09T12:24:11;8.95;;;1.63;;
23358;SDS011;11851;50.796;4.372;2022-09-09T12:36:42;11.07;;;2.10;;
23358;SDS011;11851;50.796;4.372;2022-09-09T12:42:16;12.70;;;1.70;;
23358;SDS011;11851;50.796;4.372;2022-09-09T12:44:52;8.10;;;1.90;;
23358;SDS011;11851;50.796;4.372;2022-09-09T12:47:20;6.40;;;1.73;;
23358;SDS011;11851;50.796;4.372;2022-09-09T12:49:50;7.15;;;1.65;;
23358;SDS011;11851;50.796;4.372;2022-09-09T12:54:51;11.50;;;2.03;;
23358;SDS011;11851;50.796;4.372;2022-09-09T12:57:19;5.78;;;1.85;;
23358;SDS011;11851;50.796;4.372;2022-09-09T12:59:47;8.18;;;1.67;;
23358;SDS011;11851;50.796;4.372;2022-09-09T13:02:20;6.57;;;1.70;;
23358;SDS011;11851;50.796;4.372;2022-09-09T13:04:47;9.85;;;1.95;;
23358;SDS011;11851;50.796;4.372;2022-09-09T13:07:23;6.65;;;1.27;;
23358;SDS011;11851;50.796;4.372;2022-09-09T13:09:52;8.48;;;1.75;;
23358;SDS011;11851;50.796;4.372;2022-09-09T13:12:19;9.38;;;1.50;;
23358;SDS011;11851;50.796;4.372;2022-09-09T13:14:53;5.70;;;1.70;;
23358;SDS011;11851;50.796;4.372;2022-09-09T13:17:21;7.03;;;1.65;;
23358;SDS011;11851;50.796;4.372;2022-09-09T13:19:49;6.45;;;2.13;;
23358;SDS011;11851;50.796;4.372;2022-09-09T13:22:30;4.40;;;1.70;;
23358;SDS011;11851;50.796;4.372;2022-09-09T13:25:20;6.45;;;1.58;;
23358;SDS011;11851;50.796;4.372;2022-09-09T13:27:52;7.10;;;1.40;;
23358;SDS011;11851;50.796;4.372;2022-09-09T13:30:28;8.27;;;1.20;;
23358;SDS011;11851;50.796;4.372;2022-09-09T13:38:21;4.53;;;1.30;;
23358;SDS011;11851;50.796;4.372;2022-09-09T13:40:54;4.18;;;1.38;;
23358;SDS011;11851;50.796;4.372;2022-09-09T13:43:26;6.15;;;1.40;;
23358;SDS011;11851;50.796;4.372;2022-09-09T13:46:00;7.05;;;1.48;;
23358;SDS011;11851;50.796;4.372;2022-09-09T13:48:31;2.28;;;1.10;;
23358;SDS011;11851;50.796;4.372;2022-09-09T13:51:00;4.93;;;1.58;;
23358;SDS011;11851;50.796;4.372;2022-09-09T13:53:30;6.07;;;1.38;;
23358;SDS011;11851;50.796;4.372;2022-09-09T13:55:56;4.90;;;1.40;;
23358;SDS011;11851;50.796;4.372;2022-09-09T13:58:22;6.18;;;1.58;;
23358;SDS011;11851;50.796;4.372;2022-09-09T14:00:50;8.05;;;1.50;;
23358;SDS011;11851;50.796;4.372;2022-09-09T14:03:16;7.75;;;1.75;;
23358;SDS011;11851;50.796;4.372;2022-09-09T14:05:42;4.85;;;1.55;;
23358;SDS011;11851;50.796;4.372;2022-09-09T14:08:09;5.25;;;1.20;;
23358;SDS011;11851;50.796;4.372;2022-09-09T14:10:41;4.72;;;1.52;;
23358;SDS011;11851;50.796;4.372;2022-09-09T14:13:06;6.43;;;1.40;;
23358;SDS011;11851;50.796;4.372;2022-09-09T14:15:33;7.07;;;1.52;;
23358;SDS011;11851;50.796;4.372;2022-09-09T14:17:58;6.60;;;1.67;;
23358;SDS011;11851;50.796;4.372;2022-09-09T14:20:24;4.55;;;1.40;;
23358;SDS011;11851;50.796;4.372;2022-09-09T14:22:50;5.55;;;1.33;;
23358;SDS011;11851;50.796;4.372;2022-09-09T14:25:15;11.05;;;1.60;;
23358;SDS011;11851;50.796;4.372;2022-09-09T14:27:42;7.38;;;1.85;;
23358;SDS011;11851;50.796;4.372;2022-09-09T14:30:08;4.85;;;1.52;;
23358;SDS011;11851;50.796;4.372;2022-09-09T14:32:34;7.55;;;1.52;;
23358;SDS011;11851;50.796;4.372;2022-09-09T14:35:00;7.82;;;2.20;;
23358;SDS011;11851;50.796;4.372;2022-09-09T14:37:26;3.75;;;1.55;;
23358;SDS011;11851;50.796;4.372;2022-09-09T14:39:52;5.75;;;1.75;;
23358;SDS011;11851;50.796;4.372;2022-09-09T14:42:18;4.88;;;1.60;;
23358;SDS011;11851;50.796;4.372;2022-09-09T14:44:44;9.63;;;1.58;;
23358;SDS011;11851;50.796;4.372;2022-09-09T14:47:10;5.18;;;1.70;;
23358;SDS011;11851;50.796;4.372;2022-09-09T14:49:36;5.32;;;1.50;;
23358;SDS011;11851;50.796;4.372;2022-09-09T14:52:02;4.60;;;1.27;;
23358;SDS011;11851;50.796;4.372;2022-09-09T14:54:29;6.22;;;1.50;;
23358;SDS011;11851;50.796;4.372;2022-09-09T14:56:56;5.72;;;1.13;;
23358;SDS011;11851;50.796;4.372;2022-09-09T14:59:22;5.93;;;1.30;;
23358;SDS011;11851;50.796;4.372;2022-09-09T15:01:48;5.97;;;1.90;;
23358;SDS011;11851;50.796;4.372;2022-09-09T15:04:14;6.88;;;1.30;;
23358;SDS011;11851;50.796;4.372;2022-09-09T15:06:40;4.05;;;1.55;;
23358;SDS011;11851;50.796;4.372;2022-09-09T15:09:07;4.88;;;1.50;;
23358;SDS011;11851;50.796;4.372;2022-09-09T15:11:35;4.85;;;1.90;;
23358;SDS011;11851;50.796;4.372;2022-09-09T15:14:05;3.33;;;1.00;;
23358;SDS011;11851;50.796;4.372;2022-09-09T15:16:31;6.30;;;1.83;;
23358;SDS011;11851;50.796;4.372;2022-09-09T15:18:58;5.70;;;1.30;;
23358;SDS011;11851;50.796;4.372;2022-09-09T15:21:29;3.10;;;1.40;;
23358;SDS011;11851;50.796;4.372;2022-09-09T15:23:56;4.38;;;1.40;;
23358;SDS011;11851;50.796;4.372;2022-09-09T15:26:23;3.92;;;1.40;;
23358;SDS011;11851;50.796;4.372;2022-09-09T15:28:49;7.90;;;1.77;;
23358;SDS011;11851;50.796;4.372;2022-09-09T15:33:49;7.25;;;1.80;;
23358;SDS011;11851;50.796;4.372;2022-09-09T15:38:49;8.48;;;1.35;;
23358;SDS011;11851;50.796;4.372;2022-09-09T15:41:15;5.70;;;1.60;;
23358;SDS011;11851;50.796;4.372;2022-09-09T15:43:43;8.85;;;1.80;;
23358;SDS011;11851;50.796;4.372;2022-09-09T15:46:55;6.13;;;1.50;;
23358;SDS011;11851;50.796;4.372;2022-09-09T15:49:04;6.40;;;1.60;;
23358;SDS011;11851;50.796;4.372;2022-09-09T15:51:30;6.13;;;1.55;;
23358;SDS011;11851;50.796;4.372;2022-09-09T15:53:56;4.93;;;1.40;;
23358;SDS011;11851;50.796;4.372;2022-09-09T15:56:23;7.95;;;1.33;;
23358;SDS011;11851;50.796;4.372;2022-09-09T15:58:49;6.03;;;1.52;;
23358;SDS011;11851;50.796;4.372;2022-09-09T16:01:17;5.13;;;1.30;;
23358;SDS011;11851;50.796;4.372;2022-09-09T16:03:44;9.27;;;1.63;;
23358;SDS011;11851;50.796;4.372;2022-09-09T16:06:12;5.95;;;1.65;;
23358;SDS011;11851;50.796;4.372;2022-09-09T16:08:39;5.95;;;1.63;;
23358;SDS011;11851;50.796;4.372;2022-09-09T16:11:14;6.10;;;1.63;;
23358;SDS011;11851;50.796;4.372;2022-09-09T16:13:44;5.90;;;1.27;;
23358;SDS011;11851;50.796;4.372;2022-09-09T16:16:11;6.45;;;1.40;;
23358;SDS011;11851;50.796;4.372;2022-09-09T16:18:45;7.60;;;1.60;;
23358;SDS011;11851;50.796;4.372;2022-09-09T16:21:13;7.05;;;1.83;;
23358;SDS011;11851;50.796;4.372;2022-09-09T16:23:44;8.38;;;1.90;;
23358;SDS011;11851;50.796;4.372;2022-09-09T16:26:13;12.55;;;2.28;;
23358;SDS011;11851;50.796;4.372;2022-09-09T16:28:41;10.02;;;2.13;;
23358;SDS011;11851;50.796;4.372;2022-09-09T16:31:08;6.72;;;1.42;;
23358;SDS011;11851;50.796;4.372;2022-09-09T16:33:36;5.88;;;0.95;;
23358;SDS011;11851;50.796;4.372;2022-09-09T16:36:06;6.65;;;1.25;;
23358;SDS011;11851;50.796;4.372;2022-09-09T16:38:39;6.47;;;1.33;;
23358;SDS011;11851;50.796;4.372;2022-09-09T16:41:06;5.88;;;1.10;;
23358;SDS011;11851;50.796;4.372;2022-09-09T16:43:34;1.67;;;0.93;;
23358;SDS011;11851;50.796;4.372;2022-09-09T16:46:01;4.43;;;1.05;;
23358;SDS011;11851;50.796;4.372;2022-09-09T16:48:38;5.20;;;1.33;;
23358;SDS011;11851;50.796;4.372;2022-09-09T16:51:04;5.65;;;1.17;;
23358;SDS011;11851;50.796;4.372;2022-09-09T16:53:32;4.82;;;1.25;;
23358;SDS011;11851;50.796;4.372;2022-09-09T16:56:04;4.85;;;1.35;;
23358;SDS011;11851;50.796;4.372;2022-09-09T16:58:31;7.82;;;1.27;;
23358;SDS011;11851;50.796;4.372;2022-09-09T17:01:00;5.88;;;1.20;;
23358;SDS011;11851;50.796;4.372;2022-09-09T17:03:28;4.28;;;1.25;;
23358;SDS011;11851;50.796;4.372;2022-09-09T17:05:54;9.00;;;2.00;;
23358;SDS011;11851;50.796;4.372;2022-09-09T17:08:20;7.70;;;1.98;;
23358;SDS011;11851;50.796;4.372;2022-09-09T17:10:46;7.32;;;1.77;;
23358;SDS011;11851;50.796;4.372;2022-09-09T17:13:12;14.32;;;2.28;;
23358;SDS011;11851;50.796;4.372;2022-09-09T17:15:41;7.07;;;1.70;;
23358;SDS011;11851;50.796;4.372;2022-09-09T17:18:08;7.28;;;1.77;;
23358;SDS011;11851;50.796;4.372;2022-09-09T17:20:36;12.38;;;2.35;;